Savanna, IL

9:35 AM CST on February 23, 2017 (GMT -0600)
Tri-Township

Weather History for KSFY - January, 2014

Change the Weather History Date:

Thursday, January 30, 2014

  Actual Average (KCWI) Record (KCWI)
Temperature  
Mean Temperature 25 °F -  
Max Temperature 34 °F 30 °F 57 °F (1988)
Min Temperature 16 °F 14 °F -20 °F (1966)
Degree Days  
Heating Degree Days 40    
Moisture  
Dew Point 17 °F    
Average Humidity 68    
Maximum Humidity 88    
Minimum Humidity 54    
Precipitation  
Precipitation 0.00 in - - ()
Sea Level Pressure  
Sea Level Pressure 29.75 in    
Wind  
Wind Speed 16 mph (SSW)    
Max Wind Speed 25 mph    
Max Gust Speed 37 mph    
Visibility 10 miles    
Events Snow    
Averages and records for this station are not official NWS values.
T = Trace of Precipitation, MM = Missing Value Source: NWS Daily Summary

Daily Weather History Graph

Daily Weather History Graph

Search for Another Location

Airport or City:

Trip Planner

Search our weather history database for the weather conditions in past years. The results will help you decide how hot, cold, wet, or windy it might be!

Date:

Astronomy

Jan. 30, 2014 Rise Set
Actual Time 7:15 AM CST 5:12 PM CST
Civil Twilight 6:45 AM CST 5:42 PM CST
Nautical Twilight 6:11 AM CST 6:16 PM CST
Astronomical Twilight 5:39 AM CST 6:48 PM CST
Moon 6:40 AM CST (1/30) 5:25 PM CST (1/30)
Length of Visible Light 10h 56m
Length of Day
9h 57m
Waning Crescent, 0% of the Moon is Illuminated
Jan 30
Waning Crescent
Jan 30
New
Feb 6
First Quarter
Feb 14
Full
Feb 22
Last Quarter

Hourly Weather History & Observations

Time (CST) Temp. Windchill Dew Point Humidity Pressure Visibility Wind Dir Wind Speed Gust Speed Precip Events Conditions
12:15 AM 23.0 °F 9.2 °F 10.2 °F 58% 29.87 in 10.0 mi SSE 17.3 mph - N/A   Clear
12:35 AM 23.2 °F 9.8 °F 10.4 °F 58% 29.86 in 10.0 mi SSE 16.1 mph - N/A   Clear
12:55 AM 22.8 °F 9.4 °F 10.6 °F 59% 29.85 in 10.0 mi South 16.1 mph - N/A   Clear
1:15 AM 23.4 °F 10.6 °F 10.9 °F 59% 29.84 in 10.0 mi South 15.0 mph - N/A   Clear
1:35 AM 23.9 °F 10.8 °F 10.9 °F 58% 29.83 in 10.0 mi South 16.1 mph - N/A   Clear
1:55 AM 23.9 °F 10.3 °F 11.3 °F 59% 29.83 in 10.0 mi South 17.3 mph - N/A   Clear
2:15 AM 25.2 °F 12.0 °F 12.0 °F 58% 29.82 in 10.0 mi South 17.3 mph 23.0 mph N/A   Clear
2:35 AM 25.2 °F 12.9 °F 12.7 °F 59% 29.82 in 10.0 mi South 15.0 mph - N/A   Clear
2:55 AM 25.3 °F 12.6 °F 12.9 °F 59% 29.81 in 10.0 mi SSE 16.1 mph - N/A   Clear
3:15 AM 25.7 °F 13.5 °F 12.9 °F 58% 29.79 in 10.0 mi South 15.0 mph 20.7 mph N/A   Clear
3:35 AM 26.1 °F 14.0 °F 13.1 °F 58% 29.78 in 10.0 mi South 15.0 mph - N/A   Clear
3:55 AM 26.2 °F 14.7 °F 13.5 °F 59% 29.77 in 10.0 mi South 13.8 mph - N/A   Clear
4:15 AM 27.3 °F 15.6 °F 13.5 °F 56% 29.77 in 10.0 mi South 15.0 mph - N/A   Clear
4:35 AM 26.6 °F 14.7 °F 13.8 °F 59% 29.76 in 10.0 mi SSE 15.0 mph - N/A   Clear
4:55 AM 27.1 °F 15.4 °F 14.0 °F 58% 29.75 in 10.0 mi South 15.0 mph 20.7 mph N/A   Clear
5:15 AM 27.5 °F 15.4 °F 14.0 °F 57% 29.74 in 10.0 mi South 16.1 mph 20.7 mph N/A   Clear
5:35 AM 27.7 °F 16.6 °F 14.5 °F 58% 29.74 in 10.0 mi South 13.8 mph - N/A   Clear
5:55 AM 27.5 °F 16.3 °F 14.4 °F 58% 29.73 in 10.0 mi South 13.8 mph - N/A   Clear
6:15 AM 27.3 °F 15.6 °F 14.5 °F 59% 29.72 in 10.0 mi South 15.0 mph - N/A   Clear
6:35 AM 27.3 °F 14.8 °F 14.7 °F 59% 29.71 in 10.0 mi SSE 17.3 mph - N/A   Scattered Clouds
6:55 AM 27.5 °F 15.4 °F 14.9 °F 59% 29.71 in 10.0 mi South 16.1 mph - N/A   Mostly Cloudy
7:15 AM 27.5 °F 14.2 °F 14.9 °F 59% 29.70 in 10.0 mi South 19.6 mph - N/A   Overcast
7:35 AM 27.5 °F 14.2 °F 14.9 °F 59% 29.68 in 10.0 mi South 19.6 mph 26.5 mph N/A   Overcast
7:55 AM 27.9 °F 14.4 °F 14.9 °F 58% 29.68 in 10.0 mi South 20.7 mph 28.8 mph N/A   Overcast
8:15 AM 28.2 °F 14.8 °F 15.1 °F 58% 29.67 in 10.0 mi South 20.7 mph 26.5 mph N/A   Overcast
8:35 AM 28.4 °F 14.4 °F 15.3 °F 58% 29.66 in 10.0 mi South 23.0 mph 28.8 mph N/A   Overcast
8:55 AM 28.4 °F 14.4 °F 15.6 °F 59% 29.63 in 10.0 mi South 23.0 mph 26.5 mph N/A   Overcast
9:15 AM 29.1 °F 15.7 °F 14.9 °F 55% 29.66 in 10.0 mi South 21.9 mph 27.6 mph N/A   Overcast
9:35 AM 29.1 °F 16.7 °F 15.6 °F 57% 29.63 in 10.0 mi South 18.4 mph - N/A   Overcast
9:55 AM 29.3 °F 17.0 °F 16.0 °F 58% 29.63 in 10.0 mi South 18.4 mph 27.6 mph N/A   Overcast
10:15 AM 29.8 °F 17.0 °F 15.4 °F 55% 29.63 in 10.0 mi South 20.7 mph 25.3 mph N/A   Overcast
10:35 AM 30.2 °F 17.8 °F 15.4 °F 54% 29.64 in 10.0 mi South 19.6 mph 25.3 mph N/A   Overcast
10:55 AM 30.2 °F 18.9 °F 16.2 °F 56% 29.64 in 10.0 mi South 16.1 mph - N/A   Overcast
11:15 AM 30.7 °F 19.6 °F 16.0 °F 54% 29.65 in 10.0 mi SSW 16.1 mph 21.9 mph N/A   Overcast
11:35 AM 30.9 °F 17.2 °F 18.7 °F 61% 29.65 in 3.0 mi SW 25.3 mph 36.8 mph N/A Snow Light Snow
11:55 AM 28.6 °F 17.2 °F 24.6 °F 85% 29.65 in 0.2 mi SW 15.0 mph 24.2 mph N/A Snow Snow
12:15 PM 29.3 °F 18.2 °F 26.1 °F 88% 29.64 in 0.5 mi SSW 15.0 mph 25.3 mph N/A Snow Light Snow
12:35 PM 29.8 °F 18.9 °F 25.7 °F 85% 29.62 in 5.0 mi SSW 15.0 mph 20.7 mph N/A Snow Light Snow
12:55 PM 30.2 °F 18.5 °F 25.7 °F 83% 29.61 in 4.0 mi SSW 17.3 mph 28.8 mph N/A Snow Light Snow
1:15 PM 30.6 °F 18.6 °F 25.7 °F 82% 29.61 in 10.0 mi SSW 18.4 mph 24.2 mph N/A   Overcast
1:35 PM 30.9 °F 19.1 °F 25.3 °F 80% 29.61 in 10.0 mi SSW 18.4 mph 24.2 mph N/A   Overcast
1:55 PM 31.3 °F 19.9 °F 25.7 °F 80% 29.61 in 10.0 mi SSW 17.3 mph 24.2 mph N/A   Overcast
2:15 PM 31.8 °F 20.6 °F 25.9 °F 79% 29.62 in 10.0 mi SSW 17.3 mph 24.2 mph N/A   Overcast
2:35 PM 32.2 °F 21.1 °F 26.4 °F 79% 29.62 in 10.0 mi SSW 17.3 mph 20.7 mph N/A   Overcast
2:55 PM 32.9 °F 22.8 °F 26.4 °F 77% 29.63 in 10.0 mi SSW 15.0 mph 25.3 mph N/A   Overcast
3:15 PM 32.9 °F 22.4 °F 26.6 °F 78% 29.65 in 10.0 mi SW 16.1 mph 21.9 mph N/A   Overcast
3:35 PM 33.1 °F 21.9 °F 26.6 °F 77% 29.65 in 10.0 mi SSW 18.4 mph - N/A   Overcast
3:55 PM 33.4 °F 23.9 °F 26.6 °F 76% 29.66 in 10.0 mi SSW 13.8 mph 23.0 mph N/A   Overcast
4:15 PM 33.8 °F 25.8 °F 26.6 °F 75% 29.67 in 10.0 mi SSW 10.4 mph - N/A   Overcast
4:35 PM 34.0 °F 25.5 °F 26.4 °F 74% 29.68 in 10.0 mi SW 11.5 mph 18.4 mph N/A   Overcast
4:55 PM 34.0 °F 25.5 °F 26.4 °F 74% 29.69 in 10.0 mi SW 11.5 mph - N/A   Overcast
5:15 PM 34.0 °F 25.0 °F 26.8 °F 75% 29.69 in 10.0 mi WSW 12.7 mph - N/A   Overcast
5:35 PM 32.0 °F 23.0 °F 25.3 °F 76% 29.71 in 10.0 mi West 11.5 mph 19.6 mph N/A   Scattered Clouds
5:55 PM 30.2 °F 18.9 °F 24.3 °F 79% 29.74 in 10.0 mi West 16.1 mph 21.9 mph N/A   Clear
6:15 PM 27.1 °F 15.9 °F 20.8 °F 77% 29.77 in 10.0 mi WNW 13.8 mph 19.6 mph N/A   Clear
6:35 PM 24.1 °F 14.4 °F 17.8 °F 77% 29.79 in 10.0 mi WNW 9.2 mph 18.4 mph N/A   Scattered Clouds
6:55 PM 23.0 °F 12.4 °F 17.1 °F 78% 29.80 in 10.0 mi WNW 10.4 mph 17.3 mph N/A   Scattered Clouds
7:15 PM 22.1 °F 11.3 °F 16.3 °F 79% 29.81 in 10.0 mi West 10.4 mph 16.1 mph N/A   Clear
7:35 PM 21.6 °F 9.3 °F 15.8 °F 78% 29.81 in 10.0 mi West 12.7 mph 17.3 mph N/A   Clear
7:55 PM 21.2 °F 8.3 °F 15.4 °F 78% 29.83 in 10.0 mi West 13.8 mph - N/A   Clear
8:15 PM 21.0 °F 9.9 °F 14.9 °F 77% 29.86 in 10.0 mi West 10.4 mph - N/A   Clear
8:35 PM 20.3 °F 8.3 °F 14.0 °F 77% 29.87 in 10.0 mi West 11.5 mph 18.4 mph N/A   Clear
8:55 PM 19.8 °F 9.1 °F 13.5 °F 77% 29.88 in 10.0 mi WNW 9.2 mph - N/A   Clear
9:15 PM 19.4 °F 7.9 °F 12.9 °F 76% 29.90 in 10.0 mi West 10.4 mph 17.3 mph N/A   Clear
9:35 PM 18.9 °F 5.3 °F 12.2 °F 75% 29.91 in 10.0 mi WNW 13.8 mph - N/A   Clear
9:55 PM 18.5 °F 4.3 °F 12.0 °F 76% 29.92 in 10.0 mi WNW 15.0 mph - N/A   Clear
10:15 PM 18.5 °F 4.9 °F 11.7 °F 75% 29.93 in 10.0 mi WNW 13.8 mph - N/A   Clear
10:35 PM 18.1 °F 5.6 °F 11.3 °F 75% 29.94 in 10.0 mi WNW 11.5 mph 18.4 mph N/A   Clear
10:55 PM 17.6 °F 5.7 °F 10.9 °F 75% 29.94 in 10.0 mi WNW 10.4 mph - N/A   Clear
11:15 PM 16.9 °F 4.8 °F 10.0 °F 75% 29.95 in 10.0 mi WNW 10.4 mph - N/A   Clear
11:35 PM 16.7 °F 5.3 °F 9.5 °F 73% 29.96 in 10.0 mi WNW 9.2 mph 16.1 mph N/A   Clear
11:55 PM 16.2 °F 6.5 °F 8.6 °F 72% 29.98 in 10.0 mi WNW 6.9 mph - N/A   Clear